Time;durP1;ratioP1;P1;durP2;ratioP2;P2;SDS_P1;SDS_P2;PMS_P1;PMS_P2;Temp;Humidity;BMP_temperature;BMP_pressure;BME280_temperature;BME280_humidity;BME280_pressure;Samples;Min_cycle;Max_cycle;Signal;HPM_P1;HPM_P2
2023/07/16 00:00:18;;;;;;;14.52;4.50;;;;;;;;;;5013625;28;20034;-74
2023/07/16 00:02:44;;;;;;;15.88;4.63;;;;;;;;;;5013717;28;20018;-74
2023/07/16 00:05:10;;;;;;;14.55;4.03;;;;;;;;;;5013469;28;20026;-74
2023/07/16 00:07:36;;;;;;;10.23;4.38;;;;;;;;;;5013419;28;20116;-73
2023/07/16 00:10:02;;;;;;;14.70;4.32;;;;;;;;;;5013303;28;20436;-74
2023/07/16 00:12:28;;;;;;;11.75;3.80;;;;;;;;;;5012945;28;20040;-74
2023/07/16 00:14:55;;;;;;;18.80;4.47;;;;;;;;;;5013334;28;20018;-74
2023/07/16 00:17:21;;;;;;;16.10;3.97;;;;;;;;;;5011999;28;20054;-74
2023/07/16 00:19:47;;;;;;;13.32;4.30;;;;;;;;;;5013178;28;20029;-74
2023/07/16 00:22:13;;;;;;;15.52;4.60;;;;;;;;;;5013242;28;20026;-74
2023/07/16 00:24:39;;;;;;;13.98;3.97;;;;;;;;;;5013111;28;20105;-74
2023/07/16 00:27:05;;;;;;;17.50;4.93;;;;;;;;;;5013044;28;20030;-74
2023/07/16 00:29:31;;;;;;;14.82;4.03;;;;;;;;;;5013099;28;20034;-74
2023/07/16 00:31:57;;;;;;;10.77;4.05;;;;;;;;;;5012959;28;20034;-74
2023/07/16 00:34:23;;;;;;;11.75;3.85;;;;;;;;;;5012851;28;20022;-74
2023/07/16 00:36:49;;;;;;;16.15;3.78;;;;;;;;;;5012917;28;20156;-74
2023/07/16 00:39:15;;;;;;;16.13;4.68;;;;;;;;;;5012716;28;20116;-74
2023/07/16 00:41:41;;;;;;;14.70;4.28;;;;;;;;;;5012636;28;20041;-74
2023/07/16 00:44:07;;;;;;;10.80;4.28;;;;;;;;;;5012755;28;20080;-74
2023/07/16 00:46:33;;;;;;;16.38;4.43;;;;;;;;;;5012577;28;20471;-74
2023/07/16 00:48:59;;;;;;;15.98;4.97;;;;;;;;;;5012616;28;20104;-74
2023/07/16 00:51:26;;;;;;;15.25;4.57;;;;;;;;;;5012850;28;20700;-74
2023/07/16 00:53:52;;;;;;;14.38;3.95;;;;;;;;;;5012676;28;20405;-74
2023/07/16 00:56:20;;;;;;;14.13;4.43;;;;;;;;;;5012718;28;20113;-74
2023/07/16 00:58:46;;;;;;;13.80;4.32;;;;;;;;;;5012720;28;20052;-74
2023/07/16 01:01:12;;;;;;;10.45;3.90;;;;;;;;;;5012552;28;20030;-74
2023/07/16 01:03:38;;;;;;;14.05;4.18;;;;;;;;;;5012832;28;20025;-74
2023/07/16 01:06:27;;;;;;;16.33;5.05;;;;;;;;;;5012578;28;20025;-74
2023/07/16 01:09:11;;;;;;;15.05;4.78;;;;;;;;;;5012594;28;20428;-74
2023/07/16 01:11:38;;;;;;;16.88;4.57;;;;;;;;;;5012512;28;20032;-74
2023/07/16 01:14:04;;;;;;;9.85;4.40;;;;;;;;;;5012490;28;20044;-74
2023/07/16 01:16:30;;;;;;;11.00;4.53;;;;;;;;;;5011946;28;20030;-74
2023/07/16 01:18:56;;;;;;;12.10;4.18;;;;;;;;;;5012566;28;20137;-74
2023/07/16 01:21:23;;;;;;;11.88;4.07;;;;;;;;;;5012424;28;20040;-74
2023/07/16 01:23:52;;;;;;;10.38;3.80;;;;;;;;;;5012551;28;20030;-74
2023/07/16 01:26:24;;;;;;;10.77;4.50;;;;;;;;;;5016199;28;20034;-74
2023/07/16 01:28:52;;;;;;;11.63;3.88;;;;;;;;;;5016699;28;20026;-74
2023/07/16 01:31:18;;;;;;;13.20;4.00;;;;;;;;;;5016497;28;20041;-74
2023/07/16 01:33:44;;;;;;;9.63;3.90;;;;;;;;;;5016357;28;20026;-74
2023/07/16 01:36:11;;;;;;;11.88;4.40;;;;;;;;;;5016339;28;20104;-74
2023/07/16 01:38:37;;;;;;;8.32;3.25;;;;;;;;;;5016196;28;20033;-74
2023/07/16 01:41:03;;;;;;;15.32;4.28;;;;;;;;;;5016045;28;20036;-74
2023/07/16 01:43:29;;;;;;;12.50;4.00;;;;;;;;;;5016088;28;20030;-74
2023/07/16 01:45:55;;;;;;;13.82;4.00;;;;;;;;;;5016012;28;20476;-74
2023/07/16 01:48:37;;;;;;;9.60;3.55;;;;;;;;;;5015991;28;20061;-74
2023/07/16 01:51:04;;;;;;;12.45;3.97;;;;;;;;;;5015973;28;20464;-74
2023/07/16 01:53:31;;;;;;;11.68;3.75;;;;;;;;;;5015676;28;20053;-74
2023/07/16 01:55:57;;;;;;;11.65;4.32;;;;;;;;;;5016135;28;20061;-74
2023/07/16 01:58:23;;;;;;;14.20;3.80;;;;;;;;;;5015806;28;20030;-74
2023/07/16 02:00:50;;;;;;;10.07;3.90;;;;;;;;;;5015733;28;20539;-74
2023/07/16 02:03:16;;;;;;;13.00;4.35;;;;;;;;;;5015635;28;20030;-74
2023/07/16 02:05:42;;;;;;;12.02;3.75;;;;;;;;;;5015540;28;20373;-74
2023/07/16 02:08:08;;;;;;;10.48;3.47;;;;;;;;;;5015722;28;20068;-74
2023/07/16 02:10:34;;;;;;;11.20;3.65;;;;;;;;;;5015370;28;20064;-74
2023/07/16 02:13:01;;;;;;;10.52;3.88;;;;;;;;;;5015467;28;20026;-74
2023/07/16 02:15:27;;;;;;;12.57;4.10;;;;;;;;;;5015453;28;20177;-74
2023/07/16 02:17:53;;;;;;;11.18;3.40;;;;;;;;;;5015123;28;20128;-74
2023/07/16 02:20:20;;;;;;;8.02;3.25;;;;;;;;;;5015204;28;20034;-74
2023/07/16 02:22:45;;;;;;;10.57;3.95;;;;;;;;;;5015313;28;20034;-74
2023/07/16 02:25:11;;;;;;;8.35;3.55;;;;;;;;;;5014032;28;20073;-74
2023/07/16 02:27:37;;;;;;;7.95;3.38;;;;;;;;;;5015242;28;20117;-74
2023/07/16 02:30:04;;;;;;;11.15;3.70;;;;;;;;;;5015232;28;20026;-74
2023/07/16 02:32:30;;;;;;;11.00;3.88;;;;;;;;;;5015123;28;20069;-74
2023/07/16 02:34:56;;;;;;;11.88;4.28;;;;;;;;;;5014900;28;20511;-74
2023/07/16 02:37:22;;;;;;;15.32;4.18;;;;;;;;;;5015037;28;20026;-74
2023/07/16 02:39:48;;;;;;;16.60;4.75;;;;;;;;;;5015140;28;20025;-74
2023/07/16 02:42:14;;;;;;;11.95;4.07;;;;;;;;;;5015217;28;20028;-74
2023/07/16 02:44:44;;;;;;;13.55;3.88;;;;;;;;;;5013573;28;20037;-74
2023/07/16 02:47:10;;;;;;;10.05;4.03;;;;;;;;;;5014938;28;20586;-74
2023/07/16 02:49:36;;;;;;;12.80;5.00;;;;;;;;;;5014604;28;20058;-74
2023/07/16 02:52:02;;;;;;;12.88;3.97;;;;;;;;;;5014745;28;20057;-74
2023/07/16 02:54:29;;;;;;;12.38;4.03;;;;;;;;;;5014603;28;20033;-74
2023/07/16 02:56:55;;;;;;;10.45;4.10;;;;;;;;;;5014678;28;20369;-74
2023/07/16 02:59:21;;;;;;;10.73;4.10;;;;;;;;;;5014599;28;20534;-74
2023/07/16 03:01:47;;;;;;;11.95;4.25;;;;;;;;;;5014419;28;20538;-74
2023/07/16 03:04:13;;;;;;;13.63;4.50;;;;;;;;;;5014464;28;20093;-73
2023/07/16 03:06:39;;;;;;;13.00;5.18;;;;;;;;;;5014390;28;20109;-74
2023/07/16 03:09:05;;;;;;;12.73;5.18;;;;;;;;;;5014362;28;20129;-74
2023/07/16 03:11:31;;;;;;;11.75;4.18;;;;;;;;;;5014316;28;20030;-74
2023/07/16 03:13:57;;;;;;;11.27;5.15;;;;;;;;;;5014511;28;20022;-74
2023/07/16 03:16:23;;;;;;;10.98;4.32;;;;;;;;;;5013943;28;20032;-74
2023/07/16 03:18:49;;;;;;;17.58;5.15;;;;;;;;;;5014408;28;20088;-73
2023/07/16 03:21:15;;;;;;;12.98;4.72;;;;;;;;;;5014314;28;20084;-73
2023/07/16 03:23:41;;;;;;;16.58;5.18;;;;;;;;;;5014189;28;20056;-74
2023/07/16 03:26:07;;;;;;;17.48;5.45;;;;;;;;;;5014353;28;20018;-74
2023/07/16 03:28:33;;;;;;;12.00;4.68;;;;;;;;;;5013985;28;20105;-74
2023/07/16 03:30:59;;;;;;;12.43;5.07;;;;;;;;;;5013885;28;20469;-74
2023/07/16 03:33:25;;;;;;;11.32;4.95;;;;;;;;;;5013607;28;20034;-74
2023/07/16 03:35:51;;;;;;;10.70;4.95;;;;;;;;;;5013737;28;20030;-74
2023/07/16 03:38:17;;;;;;;14.48;5.60;;;;;;;;;;5013705;28;20092;-74
2023/07/16 03:40:49;;;;;;;11.90;5.20;;;;;;;;;;5013535;28;20124;-73
2023/07/16 03:43:15;;;;;;;10.55;4.82;;;;;;;;;;5013473;28;20034;-74
2023/07/16 03:45:41;;;;;;;19.13;5.40;;;;;;;;;;5013603;28;20022;-74
2023/07/16 03:48:07;;;;;;;12.05;5.05;;;;;;;;;;5012894;28;20075;-74
2023/07/16 03:50:34;;;;;;;11.05;5.05;;;;;;;;;;5013524;28;20034;-74
2023/07/16 03:53:00;;;;;;;14.38;4.80;;;;;;;;;;5013604;28;20014;-74
2023/07/16 03:55:26;;;;;;;15.50;4.82;;;;;;;;;;5013533;28;20449;-74
2023/07/16 03:57:52;;;;;;;9.48;4.63;;;;;;;;;;5013439;28;20100;-74
2023/07/16 04:00:18;;;;;;;14.73;5.00;;;;;;;;;;5013394;28;20042;-74
2023/07/16 04:02:44;;;;;;;12.88;4.82;;;;;;;;;;5013382;28;20033;-74
2023/07/16 04:05:10;;;;;;;13.20;4.85;;;;;;;;;;5013364;28;20058;-74
2023/07/16 04:07:36;;;;;;;11.00;4.75;;;;;;;;;;5013373;28;20104;-74
2023/07/16 04:10:02;;;;;;;11.60;5.00;;;;;;;;;;5013385;28;20065;-74
2023/07/16 04:12:28;;;;;;;9.32;4.45;;;;;;;;;;5010159;28;20038;-74
2023/07/16 04:14:56;;;;;;;10.20;4.55;;;;;;;;;;5012941;28;20030;-74
2023/07/16 04:17:22;;;;;;;12.27;5.40;;;;;;;;;;5011700;28;20054;-74
2023/07/16 04:19:48;;;;;;;8.68;3.95;;;;;;;;;;5012873;28;20080;-74
2023/07/16 04:22:14;;;;;;;11.15;4.78;;;;;;;;;;5013114;28;20109;-74
2023/07/16 04:24:40;;;;;;;11.27;5.30;;;;;;;;;;5012929;28;20057;-74
2023/07/16 04:27:06;;;;;;;15.55;5.05;;;;;;;;;;5002808;28;20026;-74
2023/07/16 04:29:32;;;;;;;14.25;5.38;;;;;;;;;;4993256;28;20061;-74
2023/07/16 04:31:59;;;;;;;12.50;4.88;;;;;;;;;;4993220;28;20041;-74
2023/07/16 04:34:25;;;;;;;11.52;4.93;;;;;;;;;;4995810;28;20097;-74
2023/07/16 04:36:51;;;;;;;10.20;4.60;;;;;;;;;;5012806;28;20409;-74
2023/07/16 04:39:17;;;;;;;14.55;4.72;;;;;;;;;;5012833;28;20093;-74
2023/07/16 04:41:43;;;;;;;12.38;4.55;;;;;;;;;;5011445;28;20069;-74
2023/07/16 04:44:09;;;;;;;14.68;4.45;;;;;;;;;;5012750;28;20034;-74
2023/07/16 04:46:35;;;;;;;11.88;4.20;;;;;;;;;;5011479;28;20076;-74
2023/07/16 04:49:01;;;;;;;14.60;4.88;;;;;;;;;;5012693;28;20099;-74
2023/07/16 04:51:27;;;;;;;16.95;4.60;;;;;;;;;;5012599;28;20583;-74
2023/07/16 04:53:53;;;;;;;13.88;4.65;;;;;;;;;;5012485;28;20026;-74
2023/07/16 04:56:19;;;;;;;12.48;5.03;;;;;;;;;;5012573;28;20026;-73
2023/07/16 04:58:45;;;;;;;10.60;4.72;;;;;;;;;;5012504;28;20037;-74
2023/07/16 05:01:11;;;;;;;12.35;4.57;;;;;;;;;;5012054;28;20472;-74
2023/07/16 05:03:38;;;;;;;14.18;5.10;;;;;;;;;;5012541;28;20034;-74
2023/07/16 05:06:04;;;;;;;12.10;4.82;;;;;;;;;;5012747;28;20462;-74
2023/07/16 05:08:30;;;;;;;10.38;4.32;;;;;;;;;;5012484;28;20049;-74
2023/07/16 05:10:56;;;;;;;15.20;4.90;;;;;;;;;;5012172;28;20056;-74
2023/07/16 05:13:22;;;;;;;16.42;5.72;;;;;;;;;;5012577;28;20026;-74
2023/07/16 05:15:48;;;;;;;12.85;5.53;;;;;;;;;;5012623;28;20041;-74
2023/07/16 05:18:14;;;;;;;14.85;5.40;;;;;;;;;;5011509;28;20046;-74
2023/07/16 05:20:40;;;;;;;16.70;4.65;;;;;;;;;;5012539;28;20084;-74
2023/07/16 05:23:06;;;;;;;14.13;5.00;;;;;;;;;;5012351;28;20121;-74
2023/07/16 05:25:32;;;;;;;12.88;4.57;;;;;;;;;;5012380;28;20026;-74
2023/07/16 05:27:58;;;;;;;16.17;5.10;;;;;;;;;;5012267;28;20030;-74
2023/07/16 05:30:24;;;;;;;11.63;4.70;;;;;;;;;;5012300;28;20025;-74
2023/07/16 05:32:50;;;;;;;17.15;4.00;;;;;;;;;;5012559;28;20041;-74
2023/07/16 05:35:16;;;;;;;11.30;4.00;;;;;;;;;;5012353;28;20034;-74
2023/07/16 05:37:42;;;;;;;11.65;4.38;;;;;;;;;;5011121;28;20366;-74
2023/07/16 05:40:08;;;;;;;12.05;3.53;;;;;;;;;;5012199;28;20037;-74
2023/07/16 05:42:34;;;;;;;12.77;4.60;;;;;;;;;;5012292;28;20084;-74
2023/07/16 05:45:00;;;;;;;13.60;4.47;;;;;;;;;;5012127;28;20014;-74
2023/07/16 05:47:27;;;;;;;9.95;4.90;;;;;;;;;;5011947;28;20377;-74
2023/07/16 05:49:53;;;;;;;11.38;4.68;;;;;;;;;;5011690;28;20451;-74
2023/07/16 05:52:19;;;;;;;11.95;4.82;;;;;;;;;;5011922;28;20114;-74
2023/07/16 05:54:45;;;;;;;8.50;4.03;;;;;;;;;;5012404;28;20453;-74
2023/07/16 05:57:11;;;;;;;13.80;4.20;;;;;;;;;;5011993;28;20041;-74
2023/07/16 05:59:37;;;;;;;9.60;3.83;;;;;;;;;;5012118;28;20089;-74
2023/07/16 06:02:06;;;;;;;13.80;3.95;;;;;;;;;;5012001;28;20038;-74
2023/07/16 06:04:32;;;;;;;13.52;4.38;;;;;;;;;;5012087;28;20050;-74
2023/07/16 06:06:58;;;;;;;8.98;3.80;;;;;;;;;;5012215;28;20499;-74
2023/07/16 06:09:24;;;;;;;11.05;3.95;;;;;;;;;;5011882;28;20080;-74
2023/07/16 06:11:50;;;;;;;11.45;4.18;;;;;;;;;;5014421;28;20030;-74
2023/07/16 06:14:17;;;;;;;10.60;4.20;;;;;;;;;;5015013;28;20176;-74
2023/07/16 06:16:43;;;;;;;11.68;4.45;;;;;;;;;;5014994;28;20022;-76
2023/07/16 06:19:09;;;;;;;13.70;4.32;;;;;;;;;;5015351;28;20053;-75
2023/07/16 06:21:35;;;;;;;10.93;4.20;;;;;;;;;;5015269;28;20038;-75
2023/07/16 06:24:01;;;;;;;12.68;4.90;;;;;;;;;;5015246;28;20033;-74
2023/07/16 06:26:27;;;;;;;10.32;4.93;;;;;;;;;;5015122;28;20026;-75
2023/07/16 06:28:53;;;;;;;10.68;4.50;;;;;;;;;;5015072;28;20420;-75
2023/07/16 06:31:19;;;;;;;9.93;4.05;;;;;;;;;;5015126;28;20494;-75
2023/07/16 06:33:49;;;;;;;13.10;5.15;;;;;;;;;;5015086;28;20361;-75
2023/07/16 06:36:15;;;;;;;13.05;5.00;;;;;;;;;;5013769;28;20362;-75
2023/07/16 06:38:41;;;;;;;10.48;5.28;;;;;;;;;;5014926;28;20489;-75
2023/07/16 06:41:07;;;;;;;9.90;4.22;;;;;;;;;;5014879;28;20026;-75
2023/07/16 06:43:33;;;;;;;10.95;4.63;;;;;;;;;;5014662;28;20041;-75
2023/07/16 06:45:59;;;;;;;13.40;4.68;;;;;;;;;;5014640;28;20026;-75
2023/07/16 06:48:25;;;;;;;10.85;4.70;;;;;;;;;;5014660;28;20029;-75
2023/07/16 06:50:51;;;;;;;10.05;4.10;;;;;;;;;;5014610;28;20057;-75
2023/07/16 06:53:17;;;;;;;11.90;4.50;;;;;;;;;;5014497;28;20026;-75
2023/07/16 06:55:43;;;;;;;8.90;3.88;;;;;;;;;;5014737;28;20030;-75
2023/07/16 06:58:11;;;;;;;11.23;5.18;;;;;;;;;;5014582;28;20022;-75
2023/07/16 07:00:37;;;;;;;15.25;3.83;;;;;;;;;;5014543;28;20026;-75
2023/07/16 07:03:03;;;;;;;11.60;4.18;;;;;;;;;;5014674;28;20546;-75
2023/07/16 07:05:29;;;;;;;12.07;4.18;;;;;;;;;;5014534;28;20030;-75
2023/07/16 07:07:55;;;;;;;13.13;3.88;;;;;;;;;;5014501;28;20026;-75
2023/07/16 07:10:21;;;;;;;13.32;4.25;;;;;;;;;;5014410;28;20466;-75
2023/07/16 07:12:47;;;;;;;11.88;3.85;;;;;;;;;;5014571;28;20034;-75
2023/07/16 07:15:13;;;;;;;10.73;4.18;;;;;;;;;;5014433;28;20037;-76
2023/07/16 07:17:42;;;;;;;12.80;3.97;;;;;;;;;;5013946;28;20056;-75
2023/07/16 07:20:08;;;;;;;11.85;4.00;;;;;;;;;;5014525;28;20026;-75
2023/07/16 07:22:34;;;;;;;15.20;4.28;;;;;;;;;;5013053;28;20477;-75
2023/07/16 07:25:00;;;;;;;12.45;4.88;;;;;;;;;;5014052;28;20065;-76
2023/07/16 07:27:26;;;;;;;10.35;3.83;;;;;;;;;;5014012;28;20030;-75
2023/07/16 07:29:52;;;;;;;10.43;4.45;;;;;;;;;;5014016;28;20118;-76
2023/07/16 07:32:21;;;;;;;8.15;4.60;;;;;;;;;;5014181;28;20030;-75
2023/07/16 07:34:47;;;;;;;7.10;3.60;;;;;;;;;;5014014;28;20030;-75
2023/07/16 07:37:14;;;;;;;9.60;4.28;;;;;;;;;;5013874;28;20544;-76
2023/07/16 07:39:40;;;;;;;10.85;4.90;;;;;;;;;;5013850;28;20022;-75
2023/07/16 07:42:06;;;;;;;11.73;3.83;;;;;;;;;;5013976;28;20034;-75
2023/07/16 07:44:32;;;;;;;7.95;4.13;;;;;;;;;;5013800;28;20097;-75
2023/07/16 07:46:58;;;;;;;9.75;3.78;;;;;;;;;;5013777;28;20022;-76
2023/07/16 07:49:24;;;;;;;7.82;3.67;;;;;;;;;;5013667;28;20393;-76
2023/07/16 07:51:50;;;;;;;11.25;4.47;;;;;;;;;;5013605;28;20064;-75
2023/07/16 07:54:16;;;;;;;10.27;4.28;;;;;;;;;;5013641;28;20457;-76
2023/07/16 07:56:42;;;;;;;10.13;4.15;;;;;;;;;;5013910;28;20034;-75
2023/07/16 07:59:09;;;;;;;10.60;3.72;;;;;;;;;;5013563;28;20137;-76
2023/07/16 08:01:35;;;;;;;9.18;4.32;;;;;;;;;;5013174;28;20049;-76
2023/07/16 08:04:01;;;;;;;10.32;4.65;;;;;;;;;;5013338;28;20026;-76
2023/07/16 08:06:27;;;;;;;12.45;4.38;;;;;;;;;;5013150;28;20441;-76
2023/07/16 08:08:53;;;;;;;12.13;4.22;;;;;;;;;;5013396;28;20022;-76
2023/07/16 08:11:19;;;;;;;8.30;4.15;;;;;;;;;;5013249;28;20048;-76
2023/07/16 08:13:45;;;;;;;11.77;4.47;;;;;;;;;;5013214;28;20373;-76
2023/07/16 08:16:11;;;;;;;9.57;4.60;;;;;;;;;;5013138;28;20030;-76
2023/07/16 08:18:37;;;;;;;11.90;3.97;;;;;;;;;;5012228;28;20053;-76
2023/07/16 08:21:03;;;;;;;11.55;4.82;;;;;;;;;;5012929;28;20030;-75
2023/07/16 08:23:29;;;;;;;11.48;4.22;;;;;;;;;;5013140;28;20029;-75
2023/07/16 08:25:55;;;;;;;9.25;3.90;;;;;;;;;;5013017;28;20353;-76
2023/07/16 08:28:21;;;;;;;9.13;4.30;;;;;;;;;;5012993;28;20034;-75
2023/07/16 08:30:48;;;;;;;11.13;3.65;;;;;;;;;;5012990;28;20092;-75
2023/07/16 08:33:14;;;;;;;13.85;4.20;;;;;;;;;;5012570;28;20010;-75
2023/07/16 08:35:41;;;;;;;8.05;2.90;;;;;;;;;;5011560;28;20026;-75
2023/07/16 08:38:10;;;;;;;10.00;3.60;;;;;;;;;;5012866;28;20108;-75
2023/07/16 08:40:39;;;;;;;11.68;3.67;;;;;;;;;;5012764;28;20021;-75
2023/07/16 08:43:10;;;;;;;10.68;2.90;;;;;;;;;;5012790;28;20105;-73
2023/07/16 08:45:42;;;;;;;7.72;2.50;;;;;;;;;;5012805;28;20400;-73
2023/07/16 08:48:08;;;;;;;9.88;2.88;;;;;;;;;;5012991;28;20484;-73
2023/07/16 08:50:37;;;;;;;8.05;2.90;;;;;;;;;;5012738;28;20113;-73
2023/07/16 08:53:06;;;;;;;10.02;3.38;;;;;;;;;;5011906;28;20342;-73
2023/07/16 08:55:33;;;;;;;10.68;3.70;;;;;;;;;;5013320;28;20034;-73
2023/07/16 08:57:59;;;;;;;8.60;3.72;;;;;;;;;;5012929;28;20058;-73
2023/07/16 09:00:27;;;;;;;9.73;3.97;;;;;;;;;;5012487;28;20041;-73
2023/07/16 09:02:55;;;;;;;9.48;3.60;;;;;;;;;;5012576;28;20026;-73
2023/07/16 09:05:22;;;;;;;13.18;4.55;;;;;;;;;;5012462;28;20101;-73
2023/07/16 09:07:48;;;;;;;10.88;4.50;;;;;;;;;;5012624;28;20057;-73
2023/07/16 09:10:14;;;;;;;13.32;4.05;;;;;;;;;;5012460;28;20092;-73
2023/07/16 09:12:46;;;;;;;11.93;3.83;;;;;;;;;;5012511;28;20026;-73
2023/07/16 09:15:14;;;;;;;10.00;4.40;;;;;;;;;;5012397;28;20100;-73
2023/07/16 09:17:40;;;;;;;10.57;4.20;;;;;;;;;;5011236;28;20057;-73
2023/07/16 09:20:06;;;;;;;12.98;4.80;;;;;;;;;;5012291;28;20029;-73
2023/07/16 09:22:34;;;;;;;12.10;4.25;;;;;;;;;;5012371;28;20026;-73
2023/07/16 09:25:03;;;;;;;6.75;4.28;;;;;;;;;;5012627;28;20022;-73
2023/07/16 09:27:29;;;;;;;;;;;;;;;;;;5012870;28;20117;-73
2023/07/16 09:29:55;;;;;;;12.52;4.82;;;;;;;;;;5012391;28;19992;-73
2023/07/16 09:32:21;;;;;;;9.38;4.00;;;;;;;;;;5012269;28;20037;-72
2023/07/16 09:34:50;;;;;;;10.38;3.70;;;;;;;;;;5012204;28;20034;-73
2023/07/16 09:37:18;;;;;;;9.60;3.63;;;;;;;;;;5012384;28;20022;-73
2023/07/16 09:39:45;;;;;;;9.60;4.30;;;;;;;;;;5012128;28;20033;-73
2023/07/16 09:42:11;;;;;;;13.10;4.63;;;;;;;;;;5011963;28;20045;-73
2023/07/16 09:44:37;;;;;;;9.45;4.55;;;;;;;;;;5012033;28;20076;-73
2023/07/16 09:47:03;;;;;;;10.18;4.45;;;;;;;;;;5015336;28;20073;-73
2023/07/16 09:49:30;;;;;;;9.73;3.83;;;;;;;;;;5015772;28;20159;-72
2023/07/16 09:52:01;;;;;;;9.35;4.10;;;;;;;;;;5016027;28;20037;-73
2023/07/16 09:54:32;;;;;;;10.85;4.05;;;;;;;;;;5015776;28;20068;-73
2023/07/16 09:56:59;;;;;;;10.60;3.60;;;;;;;;;;5015630;28;20427;-74
2023/07/16 09:59:25;;;;;;;8.38;2.90;;;;;;;;;;5015616;28;20026;-75
2023/07/16 10:01:52;;;;;;;11.43;3.53;;;;;;;;;;5015677;28;20365;-75
2023/07/16 10:04:19;;;;;;;9.95;3.40;;;;;;;;;;5014311;28;20018;-73
2023/07/16 10:07:01;;;;;;;6.90;3.47;;;;;;;;;;5015576;28;20489;-73
2023/07/16 10:09:33;;;;;;;10.68;3.67;;;;;;;;;;5015667;28;20026;-73
2023/07/16 10:12:11;;;;;;;13.20;3.38;;;;;;;;;;5015766;28;20026;-73
2023/07/16 10:14:44;;;;;;;12.95;3.47;;;;;;;;;;5015558;28;20030;-73
2023/07/16 10:17:19;;;;;;;10.90;2.75;;;;;;;;;;5015195;28;20050;-73
2023/07/16 10:19:49;;;;;;;10.52;3.20;;;;;;;;;;5015385;28;20057;-73
2023/07/16 10:22:15;;;;;;;13.30;3.60;;;;;;;;;;5015098;28;20034;-73
2023/07/16 10:24:41;;;;;;;12.45;3.63;;;;;;;;;;5015585;28;20021;-73
2023/07/16 10:27:07;;;;;;;10.93;3.20;;;;;;;;;;5015189;28;20026;-73
2023/07/16 10:29:36;;;;;;;9.98;3.42;;;;;;;;;;5015536;28;20026;-73
2023/07/16 10:32:02;;;;;;;11.57;3.47;;;;;;;;;;5015471;28;20022;-73
2023/07/16 10:34:28;;;;;;;10.38;3.95;;;;;;;;;;5015096;28;20063;-73
2023/07/16 10:36:54;;;;;;;12.25;3.88;;;;;;;;;;5015020;28;20431;-73
2023/07/16 10:39:20;;;;;;;10.80;3.58;;;;;;;;;;5015006;28;20036;-73
2023/07/16 10:41:46;;;;;;;9.65;3.10;;;;;;;;;;5014820;28;20385;-73
2023/07/16 10:44:14;;;;;;;11.05;3.03;;;;;;;;;;5015306;28;20026;-73
2023/07/16 10:46:44;;;;;;;11.45;3.38;;;;;;;;;;5014981;28;20050;-73
2023/07/16 10:49:10;;;;;;;9.32;3.03;;;;;;;;;;5015129;28;20026;-73
2023/07/16 10:51:37;;;;;;;10.82;3.47;;;;;;;;;;5015000;28;20026;-74
2023/07/16 10:54:05;;;;;;;12.50;3.20;;;;;;;;;;5014784;28;20030;-73
2023/07/16 10:56:34;;;;;;;13.07;3.55;;;;;;;;;;5014777;28;20091;-73
2023/07/16 10:59:00;;;;;;;7.78;3.33;;;;;;;;;;5014683;28;20044;-73
2023/07/16 11:01:29;;;;;;;10.10;3.70;;;;;;;;;;5014455;28;20188;-73
2023/07/16 11:04:00;;;;;;;9.35;2.55;;;;;;;;;;5014964;28;20025;-73
2023/07/16 11:06:26;;;;;;;11.20;3.15;;;;;;;;;;5014950;28;20049;-73
2023/07/16 11:08:52;;;;;;;11.07;3.17;;;;;;;;;;5014446;28;20104;-73
2023/07/16 11:11:28;;;;;;;9.55;2.60;;;;;;;;;;5014389;28;20053;-73
2023/07/16 11:13:54;;;;;;;12.75;2.53;;;;;;;;;;5014365;28;20104;-73
2023/07/16 11:16:20;;;;;;;10.57;2.90;;;;;;;;;;5014281;28;20385;-73
2023/07/16 11:18:46;;;;;;;10.10;2.17;;;;;;;;;;5014109;28;20056;-73
2023/07/16 11:21:12;;;;;;;6.22;1.70;;;;;;;;;;5014239;28;20042;-73
2023/07/16 11:23:39;;;;;;;9.32;1.98;;;;;;;;;;5014454;28;20504;-73
2023/07/16 11:26:05;;;;;;;7.55;1.50;;;;;;;;;;5014371;28;20113;-73
2023/07/16 11:28:38;;;;;;;7.80;1.58;;;;;;;;;;5014288;28;20084;-73
2023/07/16 11:31:11;;;;;;;6.10;1.60;;;;;;;;;;5013974;28;20025;-73
2023/07/16 11:33:37;;;;;;;9.13;1.75;;;;;;;;;;5014088;28;20030;-73
2023/07/16 11:36:03;;;;;;;12.63;2.13;;;;;;;;;;5014075;28;20036;-73
2023/07/16 11:38:29;;;;;;;12.38;2.22;;;;;;;;;;5013972;28;20034;-73
2023/07/16 11:40:55;;;;;;;8.13;1.70;;;;;;;;;;5013676;28;20100;-73
2023/07/16 11:43:21;;;;;;;8.73;1.80;;;;;;;;;;5013861;28;20026;-73
2023/07/16 11:45:50;;;;;;;9.60;1.95;;;;;;;;;;5013819;28;20026;-73
2023/07/16 11:48:16;;;;;;;8.98;1.85;;;;;;;;;;5013707;28;20037;-73
2023/07/16 11:50:42;;;;;;;11.25;1.88;;;;;;;;;;5013684;28;20092;-73
2023/07/16 11:53:08;;;;;;;13.75;2.40;;;;;;;;;;5013691;28;20026;-73
2023/07/16 11:55:35;;;;;;;12.27;2.83;;;;;;;;;;5013528;28;20030;-73
2023/07/16 11:58:02;;;;;;;9.20;2.30;;;;;;;;;;5013884;28;20068;-73
2023/07/16 12:00:28;;;;;;;9.15;2.30;;;;;;;;;;5013643;28;20077;-73
2023/07/16 12:02:54;;;;;;;13.52;3.13;;;;;;;;;;5013585;28;20026;-73
2023/07/16 12:05:21;;;;;;;10.55;2.90;;;;;;;;;;5013581;28;20021;-73
2023/07/16 12:07:47;;;;;;;9.93;2.35;;;;;;;;;;5013083;28;20033;-73
2023/07/16 12:10:13;;;;;;;11.80;2.80;;;;;;;;;;5012913;28;20030;-73
2023/07/16 12:12:39;;;;;;;10.70;2.92;;;;;;;;;;5013334;28;20026;-73
2023/07/16 12:15:07;;;;;;;12.55;2.97;;;;;;;;;;5013087;28;20054;-73
2023/07/16 12:17:34;;;;;;;9.90;2.90;;;;;;;;;;5012744;28;20144;-73
2023/07/16 12:20:00;;;;;;;17.67;3.35;;;;;;;;;;5013128;28;20029;-73
2023/07/16 12:22:26;;;;;;;15.15;2.80;;;;;;;;;;5013063;28;20030;-73
2023/07/16 12:24:52;;;;;;;15.38;3.03;;;;;;;;;;5012994;28;20041;-73
2023/07/16 12:27:18;;;;;;;14.23;2.90;;;;;;;;;;5013216;28;20090;-73
2023/07/16 12:29:44;;;;;;;12.82;2.70;;;;;;;;;;5013077;28;20097;-73
2023/07/16 12:32:10;;;;;;;11.23;2.40;;;;;;;;;;5013022;28;20033;-73
2023/07/16 12:34:36;;;;;;;13.13;2.45;;;;;;;;;;5013066;28;20101;-73
2023/07/16 12:37:03;;;;;;;14.32;3.00;;;;;;;;;;5013057;28;20163;-73
2023/07/16 12:39:29;;;;;;;12.38;3.30;;;;;;;;;;5013062;28;20091;-73
2023/07/16 12:41:55;;;;;;;12.73;2.78;;;;;;;;;;5012603;28;20037;-73
2023/07/16 12:44:21;;;;;;;8.85;2.30;;;;;;;;;;5012645;28;20022;-73
2023/07/16 12:46:47;;;;;;;12.35;2.60;;;;;;;;;;5012667;28;20584;-73
2023/07/16 12:49:13;;;;;;;10.52;2.53;;;;;;;;;;5012638;28;20057;-73
2023/07/16 12:51:39;;;;;;;14.35;2.88;;;;;;;;;;5012284;28;20040;-73
2023/07/16 12:54:05;;;;;;;9.30;2.20;;;;;;;;;;5012635;28;20030;-73
2023/07/16 12:56:32;;;;;;;11.98;2.30;;;;;;;;;;5012513;28;20539;-74
2023/07/16 12:58:58;;;;;;;9.75;1.98;;;;;;;;;;5012905;28;20030;-74
2023/07/16 13:01:24;;;;;;;12.32;2.28;;;;;;;;;;5012426;28;20092;-73
2023/07/16 13:03:50;;;;;;;14.15;2.75;;;;;;;;;;5012553;28;20034;-74
2023/07/16 13:06:16;;;;;;;9.98;2.10;;;;;;;;;;5012511;28;20022;-74
2023/07/16 13:08:42;;;;;;;11.27;2.13;;;;;;;;;;5012524;28;20026;-74
2023/07/16 13:11:08;;;;;;;10.25;2.17;;;;;;;;;;5012408;28;20551;-74
2023/07/16 13:13:35;;;;;;;11.25;2.08;;;;;;;;;;5012451;28;20026;-74
2023/07/16 13:16:01;;;;;;;11.65;2.65;;;;;;;;;;5012554;28;20108;-74
2023/07/16 13:18:27;;;;;;;11.82;2.90;;;;;;;;;;5012164;28;20137;-74
2023/07/16 13:20:53;;;;;;;10.13;2.25;;;;;;;;;;5015149;28;20416;-74
2023/07/16 13:23:19;;;;;;;11.50;2.88;;;;;;;;;;5016399;28;20465;-74
2023/07/16 13:25:45;;;;;;;10.85;2.45;;;;;;;;;;5016547;28;20029;-74
2023/07/16 13:28:11;;;;;;;15.43;2.90;;;;;;;;;;5016538;28;20109;-74
2023/07/16 13:30:37;;;;;;;13.45;2.63;;;;;;;;;;5015239;28;20120;-74
2023/07/16 13:33:03;;;;;;;8.25;1.77;;;;;;;;;;5016282;28;20464;-74
2023/07/16 13:35:29;;;;;;;15.20;2.90;;;;;;;;;;5016100;28;20037;-74
2023/07/16 13:37:55;;;;;;;13.18;2.95;;;;;;;;;;5016088;28;20026;-73
2023/07/16 13:40:21;;;;;;;9.88;2.60;;;;;;;;;;5016223;28;20065;-74
2023/07/16 13:42:48;;;;;;;13.23;5.25;;;;;;;;;;5016171;28;20372;-74
2023/07/16 13:45:14;;;;;;;13.65;2.80;;;;;;;;;;5015015;28;20026;-74
2023/07/16 13:47:40;;;;;;;9.35;2.28;;;;;;;;;;5015952;28;20535;-74
2023/07/16 13:50:06;;;;;;;10.00;2.45;;;;;;;;;;5015984;28;20523;-74
2023/07/16 13:52:32;;;;;;;9.23;1.98;;;;;;;;;;5016156;28;20364;-74
2023/07/16 13:54:58;;;;;;;11.73;2.10;;;;;;;;;;5016183;28;20030;-75
2023/07/16 13:57:24;;;;;;;10.82;2.03;;;;;;;;;;5015868;28;20072;-74
2023/07/16 13:59:50;;;;;;;10.35;2.22;;;;;;;;;;5015863;28;20022;-75
2023/07/16 14:02:16;;;;;;;11.02;1.92;;;;;;;;;;5015688;28;20410;-74
2023/07/16 14:04:42;;;;;;;11.40;1.75;;;;;;;;;;5015766;28;20033;-75
2023/07/16 14:07:08;;;;;;;10.27;1.98;;;;;;;;;;5015670;28;20033;-75
2023/07/16 14:09:34;;;;;;;5.32;1.65;;;;;;;;;;5015612;28;20030;-74
2023/07/16 14:12:00;;;;;;;6.82;1.58;;;;;;;;;;5015678;28;20026;-75
2023/07/16 14:14:26;;;;;;;13.13;2.00;;;;;;;;;;5015742;28;20450;-75
2023/07/16 14:16:53;;;;;;;5.50;1.70;;;;;;;;;;5015533;28;20034;-74
2023/07/16 14:19:19;;;;;;;7.07;1.90;;;;;;;;;;5015113;28;20418;-74
2023/07/16 14:21:45;;;;;;;5.82;1.55;;;;;;;;;;5015501;28;20030;-75
2023/07/16 14:24:11;;;;;;;10.15;1.73;;;;;;;;;;5014380;28;20105;-75
2023/07/16 14:26:37;;;;;;;8.60;1.92;;;;;;;;;;5015572;28;20026;-75
2023/07/16 14:29:03;;;;;;;5.93;1.45;;;;;;;;;;5015460;28;20424;-75